Aviation Digital Data Service (ADDS)

Output produced by METARs form (1338 UTC 16 August 2022)
found at http://aviationweather.gov/metar/data/
 
METAR text: KOMN 161250Z 25003KT 7SM CLR 24/23 A2992
Conditions at: KOMN (ORMOND BEACH VOR, FL, US) observed 1250 UTC 16 August 2022
Temperature: 24.0°C (75°F)
Dewpoint: 23.0°C (73°F) [RH = 94%]
Pressure (altimeter): 29.92 inches Hg (1013.3 mb)
Winds: from the WSW (250 degrees) at 3 MPH (3 knots; 1.5 m/s)
Visibility: 7 miles (11 km)
Ceiling: at least 12,000 feet AGL
Clouds: sky clear below 12,000 feet AGL
Weather: no significant weather observed at this time

METAR text: KOMN 161150Z 00000KT 7SM CLR 24/22 A2992
Conditions at: KOMN (ORMOND BEACH VOR, FL, US) observed 1150 UTC 16 August 2022
Temperature: 24.0°C (75°F)
Dewpoint: 22.0°C (72°F) [RH = 89%]
Pressure (altimeter): 29.92 inches Hg (1013.3 mb)
Winds: calm
Visibility: 7 miles (11 km)
Ceiling: at least 12,000 feet AGL
Clouds: sky clear below 12,000 feet AGL
Weather: no significant weather observed at this time